sensor_id;sensor_type;location;lat;lon;timestamp;pressure;altitude;pressure_sealevel;temperature;humidity
59110;BME280;44895;47.438;18.978;2024-01-30T00:00:02;102462.75;;;-1.33;100.00
59110;BME280;44895;47.438;18.978;2024-01-30T00:03:07;102470.97;;;-1.70;100.00
59110;BME280;44895;47.438;18.978;2024-01-30T00:06:12;102459.69;;;-2.00;100.00
59110;BME280;44895;47.438;18.978;2024-01-30T00:09:15;102460.09;;;-1.95;100.00
59110;BME280;44895;47.438;18.978;2024-01-30T00:12:19;102462.19;;;-1.62;100.00
59110;BME280;44895;47.438;18.978;2024-01-30T00:15:23;102450.25;;;-1.76;100.00
59110;BME280;44895;47.438;18.978;2024-01-30T00:18:26;102462.03;;;-1.61;100.00
59110;BME280;44895;47.438;18.978;2024-01-30T00:21:30;102465.78;;;-1.72;100.00
59110;BME280;44895;47.438;18.978;2024-01-30T00:24:34;102467.09;;;-1.94;100.00
59110;BME280;44895;47.438;18.978;2024-01-30T00:27:38;102472.44;;;-2.40;100.00
59110;BME280;44895;47.438;18.978;2024-01-30T00:30:41;102472.94;;;-2.26;100.00
59110;BME280;44895;47.438;18.978;2024-01-30T00:33:45;102475.38;;;-2.15;100.00
59110;BME280;44895;47.438;18.978;2024-01-30T00:36:49;102455.66;;;-2.40;100.00
59110;BME280;44895;47.438;18.978;2024-01-30T00:39:53;102478.50;;;-2.20;100.00
59110;BME280;44895;47.438;18.978;2024-01-30T00:42:57;102484.69;;;-1.83;100.00
59110;BME280;44895;47.438;18.978;2024-01-30T00:46:01;102477.44;;;-1.91;100.00
59110;BME280;44895;47.438;18.978;2024-01-30T00:49:05;102476.59;;;-1.91;100.00
59110;BME280;44895;47.438;18.978;2024-01-30T00:52:09;102475.84;;;-1.66;100.00
59110;BME280;44895;47.438;18.978;2024-01-30T00:55:12;102478.72;;;-1.59;100.00
59110;BME280;44895;47.438;18.978;2024-01-30T00:58:17;102474.31;;;-2.04;100.00
59110;BME280;44895;47.438;18.978;2024-01-30T01:01:23;102472.78;;;-1.89;100.00
59110;BME280;44895;47.438;18.978;2024-01-30T01:04:26;102457.44;;;-1.77;100.00
59110;BME280;44895;47.438;18.978;2024-01-30T01:07:30;102476.97;;;-1.86;100.00
59110;BME280;44895;47.438;18.978;2024-01-30T01:10:33;102475.09;;;-1.76;100.00
59110;BME280;44895;47.438;18.978;2024-01-30T01:13:37;102466.31;;;-1.86;100.00
59110;BME280;44895;47.438;18.978;2024-01-30T01:16:41;102472.41;;;-1.94;100.00
59110;BME280;44895;47.438;18.978;2024-01-30T01:19:45;102468.53;;;-2.00;100.00
59110;BME280;44895;47.438;18.978;2024-01-30T01:22:49;102460.00;;;-2.03;100.00
59110;BME280;44895;47.438;18.978;2024-01-30T01:25:52;102444.63;;;-2.27;100.00
59110;BME280;44895;47.438;18.978;2024-01-30T01:28:56;102460.84;;;-2.03;100.00
59110;BME280;44895;47.438;18.978;2024-01-30T01:32:00;102461.69;;;-2.02;100.00
59110;BME280;44895;47.438;18.978;2024-01-30T01:35:04;102453.81;;;-2.40;100.00
59110;BME280;44895;47.438;18.978;2024-01-30T01:38:09;102449.25;;;-2.30;100.00
59110;BME280;44895;47.438;18.978;2024-01-30T01:41:13;102453.81;;;-2.40;100.00
59110;BME280;44895;47.438;18.978;2024-01-30T01:44:17;102446.97;;;-2.24;100.00
59110;BME280;44895;47.438;18.978;2024-01-30T01:47:21;102441.75;;;-2.16;100.00
59110;BME280;44895;47.438;18.978;2024-01-30T01:50:25;102440.28;;;-2.28;100.00
59110;BME280;44895;47.438;18.978;2024-01-30T01:53:29;102433.00;;;-2.26;100.00
59110;BME280;44895;47.438;18.978;2024-01-30T01:56:34;102441.88;;;-2.36;100.00
59110;BME280;44895;47.438;18.978;2024-01-30T01:59:38;102446.13;;;-2.43;100.00
59110;BME280;44895;47.438;18.978;2024-01-30T02:02:42;102439.09;;;-2.34;100.00
59110;BME280;44895;47.438;18.978;2024-01-30T02:05:47;102454.13;;;-2.43;100.00
59110;BME280;44895;47.438;18.978;2024-01-30T02:08:50;102446.72;;;-2.49;100.00
59110;BME280;44895;47.438;18.978;2024-01-30T02:11:55;102446.72;;;-2.77;100.00
59110;BME280;44895;47.438;18.978;2024-01-30T02:14:58;102437.81;;;-2.58;100.00
59110;BME280;44895;47.438;18.978;2024-01-30T02:18:02;102438.34;;;-2.54;100.00
59110;BME280;44895;47.438;18.978;2024-01-30T02:21:05;102432.38;;;-2.94;100.00
59110;BME280;44895;47.438;18.978;2024-01-30T02:24:09;102440.25;;;-2.65;100.00
59110;BME280;44895;47.438;18.978;2024-01-30T02:27:13;102442.75;;;-3.01;100.00
59110;BME280;44895;47.438;18.978;2024-01-30T02:30:17;102440.91;;;-2.63;100.00
59110;BME280;44895;47.438;18.978;2024-01-30T02:33:20;102442.06;;;-2.47;100.00
59110;BME280;44895;47.438;18.978;2024-01-30T02:36:25;102431.44;;;-2.75;100.00
59110;BME280;44895;47.438;18.978;2024-01-30T02:39:29;102435.50;;;-2.43;100.00
59110;BME280;44895;47.438;18.978;2024-01-30T02:42:33;102438.94;;;-2.33;100.00
59110;BME280;44895;47.438;18.978;2024-01-30T02:45:36;102446.97;;;-2.42;100.00
59110;BME280;44895;47.438;18.978;2024-01-30T02:48:40;102442.75;;;-2.63;100.00
59110;BME280;44895;47.438;18.978;2024-01-30T02:51:44;102437.16;;;-2.42;100.00
59110;BME280;44895;47.438;18.978;2024-01-30T02:54:48;102433.03;;;-2.54;100.00
59110;BME280;44895;47.438;18.978;2024-01-30T02:57:51;102438.44;;;-2.74;100.00
59110;BME280;44895;47.438;18.978;2024-01-30T03:00:55;102442.88;;;-2.37;100.00
59110;BME280;44895;47.438;18.978;2024-01-30T03:03:59;102428.94;;;-2.76;100.00
59110;BME280;44895;47.438;18.978;2024-01-30T03:07:03;102443.19;;;-2.68;100.00
59110;BME280;44895;47.438;18.978;2024-01-30T03:10:07;102440.25;;;-2.65;100.00
59110;BME280;44895;47.438;18.978;2024-01-30T03:13:11;102439.94;;;-2.62;100.00
59110;BME280;44895;47.438;18.978;2024-01-30T03:16:14;102421.34;;;-2.71;100.00
59110;BME280;44895;47.438;18.978;2024-01-30T03:19:18;102440.25;;;-2.65;100.00
59110;BME280;44895;47.438;18.978;2024-01-30T03:22:22;102442.63;;;-2.43;100.00
59110;BME280;44895;47.438;18.978;2024-01-30T03:25:26;102426.66;;;-2.71;100.00
59110;BME280;44895;47.438;18.978;2024-01-30T03:28:30;102443.63;;;-2.72;100.00
59110;BME280;44895;47.438;18.978;2024-01-30T03:31:33;102440.56;;;-2.50;100.00
59110;BME280;44895;47.438;18.978;2024-01-30T03:34:37;102454.78;;;-2.97;100.00
59110;BME280;44895;47.438;18.978;2024-01-30T03:37:41;102443.38;;;-2.79;100.00
59110;BME280;44895;47.438;18.978;2024-01-30T03:40:45;102447.41;;;-2.75;100.00
59110;BME280;44895;47.438;18.978;2024-01-30T03:43:48;102432.47;;;-3.14;100.00
59110;BME280;44895;47.438;18.978;2024-01-30T03:46:52;102432.22;;;-3.20;100.00
59110;BME280;44895;47.438;18.978;2024-01-30T03:49:55;102424.69;;;-3.35;100.00
59110;BME280;44895;47.438;18.978;2024-01-30T03:52:59;102418.13;;;-3.03;100.00
59110;BME280;44895;47.438;18.978;2024-01-30T03:56:03;102430.25;;;-2.90;100.00
59110;BME280;44895;47.438;18.978;2024-01-30T03:59:07;102422.81;;;-2.59;100.00
59110;BME280;44895;47.438;18.978;2024-01-30T04:02:11;102426.47;;;-2.88;100.00
59110;BME280;44895;47.438;18.978;2024-01-30T04:05:15;102424.69;;;-2.97;100.00
59110;BME280;44895;47.438;18.978;2024-01-30T04:08:19;102428.94;;;-3.14;100.00
59110;BME280;44895;47.438;18.978;2024-01-30T04:11:22;102417.91;;;-2.82;100.00
59110;BME280;44895;47.438;18.978;2024-01-30T04:14:26;102417.44;;;-2.95;100.00
59110;BME280;44895;47.438;18.978;2024-01-30T04:17:30;102415.97;;;-2.89;100.00
59110;BME280;44895;47.438;18.978;2024-01-30T04:20:33;102410.81;;;-2.91;100.00
59110;BME280;44895;47.438;18.978;2024-01-30T04:23:37;102417.06;;;-2.82;100.00
59110;BME280;44895;47.438;18.978;2024-01-30T04:26:41;102418.75;;;-3.09;100.00
59110;BME280;44895;47.438;18.978;2024-01-30T04:29:45;102414.31;;;-2.90;100.00
59110;BME280;44895;47.438;18.978;2024-01-30T04:32:49;102420.31;;;-2.88;100.00
59110;BME280;44895;47.438;18.978;2024-01-30T04:35:53;102419.16;;;-2.76;100.00
59110;BME280;44895;47.438;18.978;2024-01-30T04:38:56;102410.16;;;-2.75;100.00
59110;BME280;44895;47.438;18.978;2024-01-30T04:42:00;102424.31;;;-3.02;100.00
59110;BME280;44895;47.438;18.978;2024-01-30T04:45:05;102424.63;;;-3.15;100.00
59110;BME280;44895;47.438;18.978;2024-01-30T04:48:09;102430.06;;;-2.79;100.00
59110;BME280;44895;47.438;18.978;2024-01-30T04:51:13;102417.16;;;-2.74;100.00
59110;BME280;44895;47.438;18.978;2024-01-30T04:54:17;102430.81;;;-2.87;100.00
59110;BME280;44895;47.438;18.978;2024-01-30T04:57:20;102428.56;;;-2.91;100.00
59110;BME280;44895;47.438;18.978;2024-01-30T05:00:24;102427.13;;;-3.04;100.00
59110;BME280;44895;47.438;18.978;2024-01-30T05:03:28;102429.81;;;-2.86;100.00
59110;BME280;44895;47.438;18.978;2024-01-30T05:06:32;102437.69;;;-2.94;100.00
59110;BME280;44895;47.438;18.978;2024-01-30T05:09:35;102438.41;;;-3.39;100.00
59110;BME280;44895;47.438;18.978;2024-01-30T05:12:39;102431.53;;;-2.95;100.00
59110;BME280;44895;47.438;18.978;2024-01-30T05:15:43;102437.47;;;-2.73;100.00
59110;BME280;44895;47.438;18.978;2024-01-30T05:18:47;102435.72;;;-2.92;100.00
59110;BME280;44895;47.438;18.978;2024-01-30T05:21:51;102444.72;;;-3.03;100.00
59110;BME280;44895;47.438;18.978;2024-01-30T05:24:55;102459.81;;;-2.93;100.00
59110;BME280;44895;47.438;18.978;2024-01-30T05:27:58;102462.19;;;-3.38;100.00
59110;BME280;44895;47.438;18.978;2024-01-30T05:31:02;102458.50;;;-3.17;100.00
59110;BME280;44895;47.438;18.978;2024-01-30T05:34:05;102456.72;;;-3.46;100.00
59110;BME280;44895;47.438;18.978;2024-01-30T05:37:10;102456.88;;;-3.38;100.00
59110;BME280;44895;47.438;18.978;2024-01-30T05:40:17;102445.94;;;-3.45;100.00
59110;BME280;44895;47.438;18.978;2024-01-30T05:43:21;102461.88;;;-3.25;100.00
59110;BME280;44895;47.438;18.978;2024-01-30T05:46:25;102467.75;;;-3.21;100.00
59110;BME280;44895;47.438;18.978;2024-01-30T05:49:29;102446.41;;;-3.49;100.00
59110;BME280;44895;47.438;18.978;2024-01-30T05:52:32;102454.63;;;-3.42;100.00
59110;BME280;44895;47.438;18.978;2024-01-30T05:55:37;102461.94;;;-3.64;100.00
59110;BME280;44895;47.438;18.978;2024-01-30T05:58:40;102465.88;;;-3.68;100.00
59110;BME280;44895;47.438;18.978;2024-01-30T06:01:48;102463.03;;;-3.47;100.00
59110;BME280;44895;47.438;18.978;2024-01-30T06:04:52;102467.81;;;-3.51;100.00
59110;BME280;44895;47.438;18.978;2024-01-30T06:07:56;102461.88;;;-3.35;100.00
59110;BME280;44895;47.438;18.978;2024-01-30T06:11:00;102464.16;;;-3.50;100.00
59110;BME280;44895;47.438;18.978;2024-01-30T06:14:04;102473.69;;;-3.57;100.00
59110;BME280;44895;47.438;18.978;2024-01-30T06:17:08;102467.91;;;-3.33;100.00
59110;BME280;44895;47.438;18.978;2024-01-30T06:20:12;102459.69;;;-3.39;100.00
59110;BME280;44895;47.438;18.978;2024-01-30T06:23:16;102447.53;;;-3.62;100.00
59110;BME280;44895;47.438;18.978;2024-01-30T06:26:20;102472.41;;;-3.53;100.00
59110;BME280;44895;47.438;18.978;2024-01-30T06:29:24;102473.94;;;-3.50;100.00
59110;BME280;44895;47.438;18.978;2024-01-30T06:32:28;102473.13;;;-3.61;100.00
59110;BME280;44895;47.438;18.978;2024-01-30T06:35:32;102477.28;;;-3.38;100.00
59110;BME280;44895;47.438;18.978;2024-01-30T06:38:35;102476.09;;;-3.06;100.00
59110;BME280;44895;47.438;18.978;2024-01-30T06:41:39;102477.88;;;-2.97;100.00
59110;BME280;44895;47.438;18.978;2024-01-30T06:44:43;102468.56;;;-3.11;100.00
59110;BME280;44895;47.438;18.978;2024-01-30T06:47:47;102473.06;;;-3.31;100.00
59110;BME280;44895;47.438;18.978;2024-01-30T06:50:54;102483.34;;;-2.99;100.00
59110;BME280;44895;47.438;18.978;2024-01-30T06:53:58;102464.91;;;-3.10;100.00
59110;BME280;44895;47.438;18.978;2024-01-30T06:57:02;102472.44;;;-2.68;100.00
59110;BME280;44895;47.438;18.978;2024-01-30T07:00:06;102478.31;;;-2.64;100.00
59110;BME280;44895;47.438;18.978;2024-01-30T07:03:09;102481.19;;;-2.85;100.00
59110;BME280;44895;47.438;18.978;2024-01-30T07:06:13;102460.63;;;-2.55;100.00
59110;BME280;44895;47.438;18.978;2024-01-30T07:09:17;102481.38;;;-2.31;100.00
59110;BME280;44895;47.438;18.978;2024-01-30T07:12:21;102465.16;;;-2.38;100.00
59110;BME280;44895;47.438;18.978;2024-01-30T07:15:25;102474.41;;;-2.14;100.00
59110;BME280;44895;47.438;18.978;2024-01-30T07:18:28;102480.06;;;-1.81;100.00
59110;BME280;44895;47.438;18.978;2024-01-30T07:21:32;102484.97;;;-1.50;100.00
59110;BME280;44895;47.438;18.978;2024-01-30T07:24:35;102474.31;;;-1.24;100.00
59110;BME280;44895;47.438;18.978;2024-01-30T07:27:39;102479.69;;;-0.89;100.00
59110;BME280;44895;47.438;18.978;2024-01-30T07:30:43;102487.69;;;-0.89;100.00
59110;BME280;44895;47.438;18.978;2024-01-30T07:33:47;102463.22;;;-0.76;100.00
59110;BME280;44895;47.438;18.978;2024-01-30T07:36:51;102470.47;;;-0.18;100.00
59110;BME280;44895;47.438;18.978;2024-01-30T07:39:55;102463.78;;;0.69;100.00
59110;BME280;44895;47.438;18.978;2024-01-30T07:42:59;102455.56;;;1.35;100.00
59110;BME280;44895;47.438;18.978;2024-01-30T07:46:03;102451.06;;;2.22;100.00
59110;BME280;44895;47.438;18.978;2024-01-30T07:49:07;102456.72;;;3.25;100.00
59110;BME280;44895;47.438;18.978;2024-01-30T07:52:11;102457.91;;;3.37;100.00
59110;BME280;44895;47.438;18.978;2024-01-30T07:55:14;102453.09;;;3.33;100.00
59110;BME280;44895;47.438;18.978;2024-01-30T07:58:18;102453.28;;;3.46;100.00
59110;BME280;44895;47.438;18.978;2024-01-30T08:01:22;102444.59;;;3.66;100.00
59110;BME280;44895;47.438;18.978;2024-01-30T08:04:26;102449.00;;;3.52;100.00
59110;BME280;44895;47.438;18.978;2024-01-30T08:07:30;102449.31;;;3.12;100.00
59110;BME280;44895;47.438;18.978;2024-01-30T08:10:34;102455.25;;;3.07;100.00
59110;BME280;44895;47.438;18.978;2024-01-30T08:13:38;102461.53;;;3.00;100.00
59110;BME280;44895;47.438;18.978;2024-01-30T08:16:41;102462.53;;;2.84;100.00
59110;BME280;44895;47.438;18.978;2024-01-30T08:19:45;102460.41;;;2.64;100.00
59110;BME280;44895;47.438;18.978;2024-01-30T08:22:49;102462.63;;;3.20;100.00
59110;BME280;44895;47.438;18.978;2024-01-30T08:25:52;102449.22;;;2.90;100.00
59110;BME280;44895;47.438;18.978;2024-01-30T08:28:56;102470.53;;;3.07;100.00
59110;BME280;44895;47.438;18.978;2024-01-30T08:32:00;102465.69;;;3.47;100.00
59110;BME280;44895;47.438;18.978;2024-01-30T08:35:04;102454.59;;;4.37;100.00
59110;BME280;44895;47.438;18.978;2024-01-30T08:38:08;102476.50;;;4.55;100.00
59110;BME280;44895;47.438;18.978;2024-01-30T08:41:12;102471.69;;;4.51;100.00
59110;BME280;44895;47.438;18.978;2024-01-30T08:44:15;102471.78;;;4.36;100.00
59110;BME280;44895;47.438;18.978;2024-01-30T08:47:19;102480.38;;;4.24;100.00
59110;BME280;44895;47.438;18.978;2024-01-30T08:50:23;102473.75;;;4.49;100.00
59110;BME280;44895;47.438;18.978;2024-01-30T08:53:26;102465.88;;;4.47;100.00
59110;BME280;44895;47.438;18.978;2024-01-30T08:56:30;102450.06;;;4.37;100.00
59110;BME280;44895;47.438;18.978;2024-01-30T08:59:34;102456.88;;;4.62;100.00
59110;BME280;44895;47.438;18.978;2024-01-30T09:02:37;102461.97;;;5.13;100.00
59110;BME280;44895;47.438;18.978;2024-01-30T09:05:41;102453.09;;;5.81;100.00
59110;BME280;44895;47.438;18.978;2024-01-30T09:08:45;102450.38;;;7.22;100.00
59110;BME280;44895;47.438;18.978;2024-01-30T09:11:49;102448.22;;;7.83;100.00
59110;BME280;44895;47.438;18.978;2024-01-30T09:14:53;102441.56;;;8.68;100.00
59110;BME280;44895;47.438;18.978;2024-01-30T09:17:57;102447.94;;;8.23;100.00
59110;BME280;44895;47.438;18.978;2024-01-30T09:21:01;102457.66;;;7.67;100.00
59110;BME280;44895;47.438;18.978;2024-01-30T09:24:05;102437.25;;;7.71;100.00
59110;BME280;44895;47.438;18.978;2024-01-30T09:27:08;102462.25;;;7.66;100.00
59110;BME280;44895;47.438;18.978;2024-01-30T09:30:12;102450.38;;;7.22;100.00
59110;BME280;44895;47.438;18.978;2024-01-30T09:33:16;102444.25;;;6.88;100.00
59110;BME280;44895;47.438;18.978;2024-01-30T09:36:20;102448.44;;;6.50;100.00
59110;BME280;44895;47.438;18.978;2024-01-30T09:39:24;102447.63;;;6.50;100.00
59110;BME280;44895;47.438;18.978;2024-01-30T09:42:34;102447.41;;;6.45;100.00
59110;BME280;44895;47.438;18.978;2024-01-30T09:45:40;102454.63;;;6.84;100.00
59110;BME280;44895;47.438;18.978;2024-01-30T09:48:49;102435.19;;;8.30;100.00
59110;BME280;44895;47.438;18.978;2024-01-30T09:51:53;102440.00;;;9.65;100.00
59110;BME280;44895;47.438;18.978;2024-01-30T09:54:59;102430.53;;;10.40;89.31
59110;BME280;44895;47.438;18.978;2024-01-30T09:58:05;102438.72;;;8.56;100.00
59110;BME280;44895;47.438;18.978;2024-01-30T10:01:09;102446.75;;;6.83;100.00
59110;BME280;44895;47.438;18.978;2024-01-30T10:04:12;102455.28;;;6.87;100.00
59110;BME280;44895;47.438;18.978;2024-01-30T10:07:19;102435.53;;;6.79;100.00
59110;BME280;44895;47.438;18.978;2024-01-30T10:10:24;102445.41;;;8.54;100.00
59110;BME280;44895;47.438;18.978;2024-01-30T10:13:27;102448.06;;;7.26;100.00
59110;BME280;44895;47.438;18.978;2024-01-30T10:16:31;102448.38;;;5.97;100.00
59110;BME280;44895;47.438;18.978;2024-01-30T10:19:36;102446.53;;;6.04;100.00
59110;BME280;44895;47.438;18.978;2024-01-30T10:22:40;102448.63;;;6.15;100.00
59110;BME280;44895;47.438;18.978;2024-01-30T10:25:46;102434.09;;;6.16;100.00
59110;BME280;44895;47.438;18.978;2024-01-30T10:28:50;102440.34;;;5.48;100.00
59110;BME280;44895;47.438;18.978;2024-01-30T10:35:02;102426.97;;;5.13;100.00
59110;BME280;44895;47.438;18.978;2024-01-30T10:38:08;102426.66;;;5.43;100.00
59110;BME280;44895;47.438;18.978;2024-01-30T10:41:18;102425.59;;;6.40;100.00
59110;BME280;44895;47.438;18.978;2024-01-30T10:44:22;102420.59;;;6.63;100.00
59110;BME280;44895;47.438;18.978;2024-01-30T10:47:28;102408.84;;;7.10;100.00
59110;BME280;44895;47.438;18.978;2024-01-30T10:50:32;102409.63;;;6.11;100.00
59110;BME280;44895;47.438;18.978;2024-01-30T10:53:38;102408.16;;;6.15;100.00
59110;BME280;44895;47.438;18.978;2024-01-30T10:56:42;102405.47;;;6.29;100.00
59110;BME280;44895;47.438;18.978;2024-01-30T10:59:47;102399.22;;;6.48;100.00
59110;BME280;44895;47.438;18.978;2024-01-30T11:02:51;102394.44;;;6.10;100.00
59110;BME280;44895;47.438;18.978;2024-01-30T11:05:59;102396.25;;;5.69;100.00
59110;BME280;44895;47.438;18.978;2024-01-30T11:09:05;102395.47;;;5.89;100.00
59110;BME280;44895;47.438;18.978;2024-01-30T11:12:13;102391.72;;;5.97;100.00
59110;BME280;44895;47.438;18.978;2024-01-30T11:15:16;102389.00;;;5.83;100.00
59110;BME280;44895;47.438;18.978;2024-01-30T11:18:29;102391.31;;;6.60;100.00
59110;BME280;44895;47.438;18.978;2024-01-30T11:21:33;102378.94;;;5.37;100.00
59110;BME280;44895;47.438;18.978;2024-01-30T11:24:40;102374.13;;;6.08;100.00
59110;BME280;44895;47.438;18.978;2024-01-30T11:27:46;102356.00;;;5.68;100.00
59110;BME280;44895;47.438;18.978;2024-01-30T11:30:50;102371.50;;;5.39;100.00
59110;BME280;44895;47.438;18.978;2024-01-30T11:33:54;102374.28;;;5.93;100.00
59110;BME280;44895;47.438;18.978;2024-01-30T11:37:00;102367.84;;;5.80;100.00
59110;BME280;44895;47.438;18.978;2024-01-30T11:40:06;102371.34;;;5.67;100.00
59110;BME280;44895;47.438;18.978;2024-01-30T11:43:11;102360.66;;;5.19;100.00
59110;BME280;44895;47.438;18.978;2024-01-30T11:46:16;102370.09;;;5.57;100.00
59110;BME280;44895;47.438;18.978;2024-01-30T11:49:20;102354.56;;;5.65;100.00
59110;BME280;44895;47.438;18.978;2024-01-30T11:52:24;102341.09;;;5.92;100.00
59110;BME280;44895;47.438;18.978;2024-01-30T11:55:29;102348.81;;;6.02;100.00
59110;BME280;44895;47.438;18.978;2024-01-30T11:58:33;102346.69;;;5.70;100.00
59110;BME280;44895;47.438;18.978;2024-01-30T12:01:37;102334.19;;;5.49;100.00
59110;BME280;44895;47.438;18.978;2024-01-30T12:04:41;102327.81;;;5.70;100.00
59110;BME280;44895;47.438;18.978;2024-01-30T12:07:45;102329.06;;;5.68;100.00
59110;BME280;44895;47.438;18.978;2024-01-30T12:10:58;102318.47;;;5.80;100.00
59110;BME280;44895;47.438;18.978;2024-01-30T12:14:02;102316.41;;;6.29;100.00
59110;BME280;44895;47.438;18.978;2024-01-30T12:17:05;102299.38;;;6.28;100.00
59110;BME280;44895;47.438;18.978;2024-01-30T12:20:17;102300.16;;;6.49;100.00
59110;BME280;44895;47.438;18.978;2024-01-30T12:23:21;102302.69;;;6.96;100.00
59110;BME280;44895;47.438;18.978;2024-01-30T12:26:28;102306.28;;;6.76;100.00
59110;BME280;44895;47.438;18.978;2024-01-30T12:29:32;102304.88;;;6.67;100.00
59110;BME280;44895;47.438;18.978;2024-01-30T12:32:38;102306.47;;;6.81;100.00
59110;BME280;44895;47.438;18.978;2024-01-30T12:35:46;102307.41;;;6.55;100.00
59110;BME280;44895;47.438;18.978;2024-01-30T12:38:50;102307.81;;;6.52;100.00
59110;BME280;44895;47.438;18.978;2024-01-30T12:41:54;102306.91;;;6.78;100.00
59110;BME280;44895;47.438;18.978;2024-01-30T12:44:58;102292.84;;;6.56;100.00
59110;BME280;44895;47.438;18.978;2024-01-30T12:48:02;102294.50;;;6.64;100.00
59110;BME280;44895;47.438;18.978;2024-01-30T12:51:06;102295.22;;;6.32;100.00
59110;BME280;44895;47.438;18.978;2024-01-30T12:54:09;102286.44;;;6.50;100.00
59110;BME280;44895;47.438;18.978;2024-01-30T12:57:13;102290.53;;;6.73;100.00
59110;BME280;44895;47.438;18.978;2024-01-30T13:00:17;102278.59;;;6.94;100.00
59110;BME280;44895;47.438;18.978;2024-01-30T13:03:20;102273.78;;;7.03;100.00
59110;BME280;44895;47.438;18.978;2024-01-30T13:06:25;102272.69;;;7.04;100.00
59110;BME280;44895;47.438;18.978;2024-01-30T13:09:30;102276.56;;;7.22;100.00
59110;BME280;44895;47.438;18.978;2024-01-30T13:12:35;102268.69;;;6.75;97.78
59110;BME280;44895;47.438;18.978;2024-01-30T13:15:38;102267.84;;;6.81;97.56
59110;BME280;44895;47.438;18.978;2024-01-30T13:18:43;102265.19;;;6.67;94.49
59110;BME280;44895;47.438;18.978;2024-01-30T13:21:47;102268.78;;;6.55;90.67
59110;BME280;44895;47.438;18.978;2024-01-30T13:24:51;102266.59;;;6.18;89.40
59110;BME280;44895;47.438;18.978;2024-01-30T13:27:55;102243.38;;;5.83;92.09
59110;BME280;44895;47.438;18.978;2024-01-30T13:30:58;102258.50;;;5.98;94.45
59110;BME280;44895;47.438;18.978;2024-01-30T13:34:02;102264.72;;;6.12;95.75
59110;BME280;44895;47.438;18.978;2024-01-30T13:37:06;102249.16;;;6.14;92.57
59110;BME280;44895;47.438;18.978;2024-01-30T13:40:10;102263.69;;;6.26;94.50
59110;BME280;44895;47.438;18.978;2024-01-30T13:43:14;102268.22;;;6.26;96.72
59110;BME280;44895;47.438;18.978;2024-01-30T13:46:18;102233.19;;;6.12;97.74
59110;BME280;44895;47.438;18.978;2024-01-30T13:49:22;102263.50;;;6.14;98.66
59110;BME280;44895;47.438;18.978;2024-01-30T13:52:26;102257.47;;;6.12;100.00
59110;BME280;44895;47.438;18.978;2024-01-30T13:55:30;102253.97;;;5.98;98.30
59110;BME280;44895;47.438;18.978;2024-01-30T13:58:34;102250.63;;;6.16;100.00
59110;BME280;44895;47.438;18.978;2024-01-30T14:01:39;102253.53;;;5.75;96.17
59110;BME280;44895;47.438;18.978;2024-01-30T14:04:43;102250.19;;;5.93;96.56
59110;BME280;44895;47.438;18.978;2024-01-30T14:07:47;102253.75;;;5.93;95.52
59110;BME280;44895;47.438;18.978;2024-01-30T14:10:51;102250.84;;;5.81;97.04
59110;BME280;44895;47.438;18.978;2024-01-30T14:13:54;102250.44;;;5.78;95.96
59110;BME280;44895;47.438;18.978;2024-01-30T14:16:58;102245.00;;;5.98;97.07
59110;BME280;44895;47.438;18.978;2024-01-30T14:20:03;102253.75;;;5.80;96.82
59110;BME280;44895;47.438;18.978;2024-01-30T14:23:10;102259.97;;;5.67;100.00
59110;BME280;44895;47.438;18.978;2024-01-30T14:26:14;102254.78;;;5.72;100.00
59110;BME280;44895;47.438;18.978;2024-01-30T14:29:17;102253.31;;;5.56;100.00
59110;BME280;44895;47.438;18.978;2024-01-30T14:32:21;102232.59;;;5.43;100.00
59110;BME280;44895;47.438;18.978;2024-01-30T14:35:25;102242.75;;;5.48;100.00
59110;BME280;44895;47.438;18.978;2024-01-30T14:38:29;102242.56;;;5.49;100.00
59110;BME280;44895;47.438;18.978;2024-01-30T14:41:33;102247.34;;;5.54;100.00
59110;BME280;44895;47.438;18.978;2024-01-30T14:44:36;102239.66;;;5.44;100.00
59110;BME280;44895;47.438;18.978;2024-01-30T14:47:40;102242.94;;;5.26;100.00
59110;BME280;44895;47.438;18.978;2024-01-30T14:50:44;102242.34;;;5.31;100.00
59110;BME280;44895;47.438;18.978;2024-01-30T14:53:48;102240.91;;;5.28;100.00
59110;BME280;44895;47.438;18.978;2024-01-30T14:56:52;102226.94;;;4.98;100.00
59110;BME280;44895;47.438;18.978;2024-01-30T14:59:56;102240.66;;;5.16;100.00
59110;BME280;44895;47.438;18.978;2024-01-30T15:03:00;102246.41;;;5.00;100.00
59110;BME280;44895;47.438;18.978;2024-01-30T15:06:04;102247.03;;;4.95;100.00
59110;BME280;44895;47.438;18.978;2024-01-30T15:09:08;102251.94;;;4.71;100.00
59110;BME280;44895;47.438;18.978;2024-01-30T15:12:12;102245.34;;;4.87;100.00
59110;BME280;44895;47.438;18.978;2024-01-30T15:15:16;102249.19;;;4.65;100.00
59110;BME280;44895;47.438;18.978;2024-01-30T15:18:19;102239.09;;;4.25;100.00
59110;BME280;44895;47.438;18.978;2024-01-30T15:21:23;102241.84;;;4.03;100.00
59110;BME280;44895;47.438;18.978;2024-01-30T15:24:27;102234.53;;;3.90;100.00
59110;BME280;44895;47.438;18.978;2024-01-30T15:27:30;102235.81;;;3.66;100.00
59110;BME280;44895;47.438;18.978;2024-01-30T15:30:34;102240.50;;;3.57;100.00
59110;BME280;44895;47.438;18.978;2024-01-30T15:33:38;102243.69;;;3.46;100.00
59110;BME280;44895;47.438;18.978;2024-01-30T15:36:42;102244.00;;;2.93;100.00
59110;BME280;44895;47.438;18.978;2024-01-30T15:39:45;102252.78;;;2.50;100.00
59110;BME280;44895;47.438;18.978;2024-01-30T15:42:49;102256.69;;;2.84;100.00
59110;BME280;44895;47.438;18.978;2024-01-30T15:45:53;102242.44;;;2.32;100.00